createdAt,value
2022-09-06T00:02:21.712Z,100627.22
2022-09-06T00:05:27.149Z,100624.12
2022-09-06T00:08:32.128Z,100626.34
2022-09-06T00:11:38.480Z,100624.53
2022-09-06T00:14:44.804Z,100620.95
2022-09-06T00:17:52.411Z,100616.69
2022-09-06T00:20:58.998Z,100618.33
2022-09-06T00:24:04.359Z,100615.23
2022-09-06T00:27:10.033Z,100618.07
2022-09-06T00:30:15.455Z,100612.42
2022-09-06T00:33:22.225Z,100613.61
2022-09-06T00:36:28.320Z,100612.14
2022-09-06T00:39:34.439Z,100616.63
2022-09-06T00:42:40.322Z,100617.30
2022-09-06T00:45:47.950Z,100612.84
2022-09-06T00:48:52.957Z,100603.20
2022-09-06T00:51:58.942Z,100606.20
2022-09-06T00:55:04.895Z,100604.39
2022-09-06T00:58:10.495Z,100602.44
2022-09-06T01:01:17.023Z,100598.24
2022-09-06T01:04:22.194Z,100591.81
2022-09-06T01:07:54.476Z,100595.24
2022-09-06T01:11:27.088Z,100592.31
2022-09-06T01:15:12.641Z,100592.56
2022-09-06T01:18:37.046Z,100592.63
2022-09-06T01:21:53.760Z,100591.33
2022-09-06T01:25:19.684Z,100594.16
2022-09-06T01:28:50.162Z,100590.66
2022-09-06T01:32:04.770Z,100595.34
2022-09-06T01:35:15.238Z,100590.63
2022-09-06T01:38:21.083Z,100595.55
2022-09-06T01:41:26.271Z,100595.22
2022-09-06T01:44:32.183Z,100590.61
2022-09-06T01:48:09.541Z,100596.75
2022-09-06T01:51:19.497Z,100595.67
2022-09-06T01:54:52.047Z,100601.04
2022-09-06T01:58:39.843Z,100600.05
2022-09-06T02:02:00.266Z,100603.89
2022-09-06T02:05:18.943Z,100601.12
2022-09-06T02:08:16.128Z,100604.03
2022-09-06T02:11:22.709Z,100606.24
2022-09-06T02:14:39.674Z,100608.63
2022-09-06T02:17:52.596Z,100613.02
2022-09-06T02:21:01.691Z,100609.13
2022-09-06T02:24:07.103Z,100611.14
2022-09-06T02:27:11.808Z,100609.87
2022-09-06T02:30:16.706Z,100609.14
2022-09-06T02:33:28.450Z,100599.61
2022-09-06T02:36:34.596Z,100602.84
2022-09-06T02:39:39.768Z,100603.74
2022-09-06T02:42:46.343Z,100600.08
2022-09-06T02:45:51.511Z,100603.28
2022-09-06T02:48:57.315Z,100609.02
2022-09-06T02:52:02.819Z,100615.42
2022-09-06T02:55:09.591Z,100610.66
2022-09-06T02:58:14.852Z,100609.06
2022-09-06T03:01:20.819Z,100609.86
2022-09-06T03:04:27.941Z,100612.36
2022-09-06T03:07:33.442Z,100616.07
2022-09-06T03:10:38.300Z,100614.69
2022-09-06T03:13:44.097Z,100614.44
2022-09-06T03:16:50.108Z,100615.34
2022-09-06T03:19:56.220Z,100622.22
2022-09-06T03:23:03.432Z,100631.62
2022-09-06T03:26:09.578Z,100631.95
2022-09-06T03:29:08.493Z,100634.38
2022-09-06T03:32:01.716Z,100642.56
2022-09-06T03:35:06.975Z,100637.31
2022-09-06T03:38:14.861Z,100642.55
2022-09-06T03:41:20.068Z,100652.02
2022-09-06T03:44:26.585Z,100641.45
2022-09-06T03:47:33.267Z,100640.47
2022-09-06T03:50:39.736Z,100646.69
2022-09-06T03:53:45.731Z,100645.63
2022-09-06T03:56:51.882Z,100647.39
2022-09-06T03:59:57.188Z,100647.65
2022-09-06T04:03:06.775Z,100644.62
2022-09-06T04:06:12.612Z,100656.03
2022-09-06T04:09:18.555Z,100653.87
2022-09-06T04:12:25.544Z,100659.12
2022-09-06T04:15:31.391Z,100661.23
2022-09-06T04:18:37.870Z,100668.20
2022-09-06T04:21:43.402Z,100667.37
2022-09-06T04:24:48.658Z,100668.23
2022-09-06T04:27:56.540Z,100670.98
2022-09-06T04:31:13.424Z,100673.38
2022-09-06T04:34:19.058Z,100670.67
2022-09-06T04:37:26.925Z,100664.06
2022-09-06T04:40:32.671Z,100671.49
2022-09-06T04:43:38.215Z,100671.44
2022-09-06T04:46:47.473Z,100667.06
2022-09-06T04:49:52.954Z,100673.73
2022-09-06T04:52:59.347Z,100670.48
2022-09-06T04:56:05.019Z,100682.48
2022-09-06T04:59:09.834Z,100679.94
2022-09-06T05:02:15.137Z,100680.34
2022-09-06T05:05:19.737Z,100669.45
2022-09-06T05:08:25.394Z,100672.70
2022-09-06T05:11:32.064Z,100671.25
2022-09-06T05:14:37.882Z,100670.92
2022-09-06T05:17:44.290Z,100672.08
2022-09-06T05:20:49.541Z,100680.02
2022-09-06T05:23:58.493Z,100679.51
2022-09-06T05:27:03.166Z,100674.82
2022-09-06T05:30:08.590Z,100680.89
2022-09-06T05:33:14.995Z,100675.36
2022-09-06T05:36:21.723Z,100683.06
2022-09-06T05:39:28.331Z,100681.74
2022-09-06T05:42:36.756Z,100682.20
2022-09-06T05:45:43.205Z,100678.59
2022-09-06T05:48:49.292Z,100685.59
2022-09-06T05:51:56.131Z,100685.94
2022-09-06T05:55:02.415Z,100690.47
2022-09-06T05:58:08.590Z,100694.67
2022-09-06T06:01:37.314Z,100697.98
2022-09-06T06:04:45.561Z,100704.96
2022-09-06T06:07:54.131Z,100701.59
2022-09-06T06:11:01.239Z,100701.57
2022-09-06T06:14:07.503Z,100705.66
2022-09-06T06:17:07.792Z,100709.46
2022-09-06T06:20:13.953Z,100703.25
2022-09-06T06:23:19.147Z,100708.78
2022-09-06T06:26:28.051Z,100709.97
2022-09-06T06:29:34.254Z,100714.61
2022-09-06T06:32:41.158Z,100716.21
2022-09-06T06:35:47.143Z,100720.22
2022-09-06T06:38:53.827Z,100718.06
2022-09-06T06:41:58.606Z,100718.39
2022-09-06T06:45:05.632Z,100727.36
2022-09-06T06:48:04.727Z,100727.90
2022-09-06T06:51:10.264Z,100729.52
2022-09-06T06:54:08.954Z,100732.63
2022-09-06T06:57:16.770Z,100731.29
2022-09-06T07:00:28.367Z,100725.87
2022-09-06T07:03:36.084Z,100728.64
2022-09-06T07:12:59.920Z,100722.70
2022-09-06T07:16:06.723Z,100730.18
2022-09-06T07:22:23.704Z,100730.56
2022-09-06T07:25:29.167Z,100715.34
2022-09-06T07:28:34.521Z,100724.03
2022-09-06T07:34:49.117Z,100726.56
2022-09-06T07:37:55.215Z,100721.55
2022-09-06T07:41:14.763Z,100732.88
2022-09-06T07:44:20.264Z,100730.34
2022-09-06T07:50:50.189Z,100736.42
2022-09-06T07:53:43.881Z,100736.41
2022-09-06T07:56:49.519Z,100727.58
2022-09-06T07:59:55.787Z,100727.80
2022-09-06T08:03:02.609Z,100735.73
2022-09-06T08:06:08.814Z,100733.49
2022-09-06T08:09:15.551Z,100729.95
2022-09-06T08:12:46.591Z,100729.14
2022-09-06T08:15:41.751Z,100723.16
2022-09-06T08:18:50.831Z,100726.58
2022-09-06T08:21:55.587Z,100712.91
2022-09-06T08:25:01.888Z,100723.66
2022-09-06T08:28:11.031Z,100707.56
2022-09-06T08:31:25.162Z,100725.72
2022-09-06T08:34:32.033Z,100713.11
2022-09-06T08:37:37.738Z,100707.97
2022-09-06T08:40:43.381Z,100708.09
2022-09-06T08:43:49.764Z,100704.64
2022-09-06T08:47:11.257Z,100698.59
2022-09-06T08:50:20.704Z,100711.00
2022-09-06T08:53:31.930Z,100703.74
2022-09-06T08:56:48.944Z,100695.33
2022-09-06T08:59:56.192Z,100704.34
2022-09-06T09:03:06.354Z,100691.98
2022-09-06T09:06:12.226Z,100690.73
2022-09-06T09:09:21.600Z,100694.81
2022-09-06T09:12:27.175Z,100689.25
2022-09-06T09:15:40.054Z,100692.45
2022-09-06T09:18:46.425Z,100692.41
2022-09-06T09:21:54.219Z,100695.36
2022-09-06T09:24:54.794Z,100695.83
2022-09-06T09:28:03.294Z,100695.45
2022-09-06T09:31:10.278Z,100688.92
2022-09-06T09:34:15.767Z,100701.39
2022-09-06T09:37:46.369Z,100698.10
2022-09-06T09:40:50.836Z,100681.81
2022-09-06T09:43:57.241Z,100688.84
2022-09-06T09:47:03.468Z,100693.98
2022-09-06T09:50:11.172Z,100686.25
2022-09-06T09:53:27.830Z,100677.17
2022-09-06T09:56:32.831Z,100690.88
2022-09-06T09:59:56.697Z,100690.77
2022-09-06T10:03:01.590Z,100697.03
2022-09-06T10:09:39.505Z,100691.27
2022-09-06T10:12:56.470Z,100682.12
2022-09-06T10:16:03.716Z,100692.50
2022-09-06T10:19:09.909Z,100691.59
2022-09-06T10:22:19.635Z,100693.38
2022-09-06T10:25:30.810Z,100688.09
2022-09-06T10:28:55.744Z,100698.69
2022-09-06T10:32:31.047Z,100693.27
2022-09-06T10:35:40.128Z,100682.70
2022-09-06T10:38:42.089Z,100684.73
2022-09-06T10:42:22.333Z,100690.92
2022-09-06T10:45:53.784Z,100690.77
2022-09-06T10:49:02.788Z,100685.81
2022-09-06T10:52:13.979Z,100680.17
2022-09-06T10:55:20.251Z,100683.34
2022-09-06T10:58:25.899Z,100682.56
2022-09-06T11:01:34.719Z,100685.65
2022-09-06T11:11:07.245Z,100696.03
2022-09-06T11:14:13.237Z,100681.65
2022-09-06T11:17:23.552Z,100673.42
2022-09-06T11:20:45.203Z,100676.48
2022-09-06T11:24:17.472Z,100674.50
2022-09-06T11:27:41.700Z,100660.11
2022-09-06T11:30:34.576Z,100668.27
2022-09-06T11:33:47.664Z,100676.70
2022-09-06T11:36:59.891Z,100661.73
2022-09-06T11:40:27.698Z,100659.58
2022-09-06T11:43:52.942Z,100669.84
2022-09-06T11:47:04.167Z,100661.81
2022-09-06T11:50:09.764Z,100661.30
2022-09-06T11:53:29.671Z,100655.55
2022-09-06T11:57:01.631Z,100662.20
2022-09-06T12:00:14.333Z,100661.30
2022-09-06T12:06:30.540Z,100663.25
2022-09-06T12:09:52.435Z,100659.56
2022-09-06T12:13:04.950Z,100656.89
2022-09-06T12:16:13.061Z,100656.16
2022-09-06T12:19:18.862Z,100649.06
2022-09-06T12:22:47.197Z,100656.81
2022-09-06T12:25:56.562Z,100642.52
2022-09-06T12:29:05.157Z,100641.52
2022-09-06T12:32:12.501Z,100643.80
2022-09-06T12:38:39.479Z,100648.53
2022-09-06T12:41:48.533Z,100643.71
2022-09-06T12:44:57.411Z,100650.17
2022-09-06T12:48:02.636Z,100645.20
2022-09-06T12:51:24.980Z,100651.50
2022-09-06T12:54:39.243Z,100653.34
2022-09-06T12:57:44.663Z,100656.11
2022-09-06T13:00:58.206Z,100657.48
2022-09-06T13:04:16.135Z,100651.95
2022-09-06T13:07:24.305Z,100659.69
2022-09-06T13:10:30.846Z,100664.45
2022-09-06T13:13:38.508Z,100656.61
2022-09-06T13:16:49.839Z,100665.49
2022-09-06T13:19:55.919Z,100654.48
2022-09-06T13:23:03.913Z,100667.25
2022-09-06T13:26:09.509Z,100662.09
2022-09-06T13:29:33.501Z,100661.32
2022-09-06T13:32:38.847Z,100665.67
2022-09-06T13:35:52.667Z,100667.21
2022-09-06T13:38:58.727Z,100663.67
2022-09-06T13:42:09.066Z,100665.67
2022-09-06T13:45:38.285Z,100666.67
2022-09-06T13:48:46.546Z,100662.74
2022-09-06T13:51:53.505Z,100659.02
2022-09-06T13:54:59.360Z,100659.99
2022-09-06T13:58:04.477Z,100651.33
2022-09-06T14:01:10.255Z,100665.22
2022-09-06T14:04:17.919Z,100663.67
2022-09-06T14:07:24.081Z,100658.13
2022-09-06T14:10:30.434Z,100662.50
2022-09-06T14:13:35.442Z,100660.11
2022-09-06T14:16:41.179Z,100663.13
2022-09-06T14:19:46.946Z,100665.44
2022-09-06T14:22:52.484Z,100666.29
2022-09-06T14:25:57.562Z,100670.22
2022-09-06T14:29:04.043Z,100671.19
2022-09-06T14:32:10.177Z,100680.20
2022-09-06T14:35:16.228Z,100672.59
2022-09-06T14:38:22.277Z,100669.97
2022-09-06T14:41:27.838Z,100676.98
2022-09-06T14:44:33.491Z,100677.98
2022-09-06T14:47:40.434Z,100676.91
2022-09-06T14:50:45.625Z,100672.06
2022-09-06T14:53:52.195Z,100665.05
2022-09-06T14:56:58.554Z,100664.65
2022-09-06T15:00:05.728Z,100670.42
2022-09-06T15:03:11.093Z,100666.00
2022-09-06T15:06:18.524Z,100669.16
2022-09-06T15:09:24.278Z,100670.08
2022-09-06T15:12:29.659Z,100661.05
2022-09-06T15:15:35.323Z,100676.00
2022-09-06T15:18:41.615Z,100673.39
2022-09-06T15:21:47.238Z,100685.47
2022-09-06T15:24:53.179Z,100679.95
2022-09-06T15:27:58.816Z,100679.69
2022-09-06T15:31:04.832Z,100675.32
2022-09-06T15:34:11.007Z,100680.77
2022-09-06T15:37:20.651Z,100671.61
2022-09-06T15:40:29.276Z,100674.06
2022-09-06T15:43:36.296Z,100676.15
2022-09-06T15:46:55.151Z,100676.63
2022-09-06T15:50:04.202Z,100668.20
2022-09-06T15:53:03.319Z,100668.95
2022-09-06T15:56:14.107Z,100663.30
2022-09-06T15:59:19.463Z,100660.84
2022-09-06T16:02:25.197Z,100667.00
2022-09-06T16:08:38.339Z,100661.39
2022-09-06T16:11:44.511Z,100660.33
2022-09-06T16:14:49.138Z,100660.42
2022-09-06T16:17:55.326Z,100673.92
2022-09-06T16:21:00.988Z,100667.14
2022-09-06T16:24:17.540Z,100672.37
2022-09-06T16:27:23.355Z,100678.09
2022-09-06T16:30:28.809Z,100670.55
2022-09-06T16:33:33.869Z,100675.18
2022-09-06T16:36:40.544Z,100686.17
2022-09-06T16:39:45.891Z,100686.17
2022-09-06T16:42:52.384Z,100684.79
2022-09-06T16:45:58.006Z,100688.89
2022-09-06T16:49:12.575Z,100693.23
2022-09-06T16:52:18.996Z,100695.51
2022-09-06T16:55:24.064Z,100698.67
2022-09-06T16:58:30.013Z,100703.80
2022-09-06T17:01:36.809Z,100710.39
2022-09-06T17:04:42.529Z,100717.52
2022-09-06T17:07:47.623Z,100718.03
2022-09-06T17:10:54.013Z,100719.33
2022-09-06T17:14:02.523Z,100726.14
2022-09-06T17:17:13.190Z,100731.86
2022-09-06T17:20:12.635Z,100730.70
2022-09-06T17:23:19.754Z,100730.08
2022-09-06T17:26:24.342Z,100733.16
2022-09-06T17:29:31.905Z,100738.48
2022-09-06T17:32:38.681Z,100747.51
2022-09-06T17:35:44.598Z,100750.81
2022-09-06T17:38:53.293Z,100753.47
2022-09-06T17:42:02.817Z,100758.70
2022-09-06T17:45:09.078Z,100757.41
2022-09-06T17:48:15.779Z,100762.94
2022-09-06T17:51:22.827Z,100764.05
2022-09-06T17:54:27.826Z,100771.36
2022-09-06T17:57:32.893Z,100769.10
2022-09-06T18:00:38.500Z,100769.10
2022-09-06T18:03:44.892Z,100771.85
2022-09-06T18:06:50.664Z,100782.59
2022-09-06T18:09:57.522Z,100778.57
2022-09-06T18:13:03.617Z,100780.48
2022-09-06T18:16:10.471Z,100782.47
2022-09-06T18:19:17.182Z,100780.86
2022-09-06T18:22:23.093Z,100777.03
2022-09-06T18:25:29.346Z,100781.18
2022-09-06T18:28:34.559Z,100784.73
2022-09-06T18:31:40.908Z,100782.69
2022-09-06T18:34:47.530Z,100778.45
2022-09-06T18:37:54.327Z,100784.42
2022-09-06T18:41:15.157Z,100784.12
2022-09-06T18:44:20.912Z,100783.09
2022-09-06T18:47:26.510Z,100783.75
2022-09-06T18:50:32.350Z,100786.66
2022-09-06T18:53:42.653Z,100789.02
2022-09-06T18:56:44.713Z,100782.59
2022-09-06T18:59:49.895Z,100781.09
2022-09-06T19:02:56.860Z,100781.68
2022-09-06T19:06:04.965Z,100791.91
2022-09-06T19:09:18.303Z,100789.72
2022-09-06T19:12:24.343Z,100782.49
2022-09-06T19:15:31.382Z,100785.89
2022-09-06T19:18:39.099Z,100787.45
2022-09-06T19:21:46.128Z,100788.08
2022-09-06T19:24:51.730Z,100788.25
2022-09-06T19:27:57.541Z,100791.68
2022-09-06T19:31:05.734Z,100791.26
2022-09-06T19:34:11.529Z,100792.58
2022-09-06T19:37:18.506Z,100793.62
2022-09-06T19:40:24.988Z,100791.34
2022-09-06T19:43:30.728Z,100796.20
2022-09-06T19:46:35.917Z,100787.92
2022-09-06T19:49:42.353Z,100791.71
2022-09-06T19:52:48.071Z,100787.91
2022-09-06T19:55:54.447Z,100795.04
2022-09-06T19:59:00.415Z,100797.27
2022-09-06T20:02:05.780Z,100795.09
2022-09-06T20:05:11.113Z,100795.89
2022-09-06T20:08:16.152Z,100789.94
2022-09-06T20:11:23.915Z,100788.09
2022-09-06T20:14:31.377Z,100789.57
2022-09-06T20:17:36.838Z,100791.80
2022-09-06T20:20:41.939Z,100791.45
2022-09-06T20:23:48.118Z,100793.33
2022-09-06T20:26:53.031Z,100787.19
2022-09-06T20:29:59.032Z,100790.79
2022-09-06T20:33:04.642Z,100786.26
2022-09-06T20:36:14.474Z,100784.45
2022-09-06T20:39:20.094Z,100785.31
2022-09-06T20:42:26.207Z,100786.31
2022-09-06T20:45:26.124Z,100783.13
2022-09-06T20:48:31.448Z,100784.45
2022-09-06T20:51:37.526Z,100782.55
2022-09-06T20:54:42.195Z,100784.20
2022-09-06T20:57:47.729Z,100779.33
2022-09-06T21:00:54.640Z,100782.27
2022-09-06T21:04:01.269Z,100783.19
2022-09-06T21:07:06.780Z,100791.60
2022-09-06T21:10:12.890Z,100790.48
2022-09-06T21:13:19.222Z,100790.55
2022-09-06T21:16:25.719Z,100787.73
2022-09-06T21:19:32.071Z,100791.69
2022-09-06T21:22:37.678Z,100786.36
2022-09-06T21:25:43.788Z,100784.98
2022-09-06T21:28:46.282Z,100791.80
2022-09-06T21:31:42.685Z,100794.31
2022-09-06T21:34:48.687Z,100784.36
2022-09-06T21:37:54.252Z,100794.80
2022-09-06T21:40:53.466Z,100787.61
2022-09-06T21:44:01.361Z,100793.63
2022-09-06T21:47:06.331Z,100788.36
2022-09-06T21:50:11.455Z,100788.12
2022-09-06T21:53:18.613Z,100789.30
2022-09-06T21:56:25.759Z,100784.39
2022-09-06T21:59:32.378Z,100778.50
2022-09-06T22:02:37.818Z,100784.78
2022-09-06T22:05:36.534Z,100783.70
2022-09-06T22:08:42.120Z,100778.38
2022-09-06T22:11:48.026Z,100781.80
2022-09-06T22:14:54.402Z,100790.61
2022-09-06T22:18:00.317Z,100784.39
2022-09-06T22:21:05.725Z,100783.59
2022-09-06T22:24:17.663Z,100790.84
2022-09-06T22:27:23.422Z,100783.30
2022-09-06T22:30:28.458Z,100788.14
2022-09-06T22:33:34.451Z,100784.99
2022-09-06T22:36:39.372Z,100779.75
2022-09-06T22:39:43.607Z,100787.14
2022-09-06T22:42:49.782Z,100783.73
2022-09-06T22:45:55.445Z,100789.24
2022-09-06T22:49:02.780Z,100786.86
2022-09-06T22:52:08.288Z,100781.34
2022-09-06T22:55:13.652Z,100783.42
2022-09-06T22:58:19.233Z,100781.20
2022-09-06T23:01:29.676Z,100780.52
2022-09-06T23:04:36.479Z,100786.79
2022-09-06T23:07:41.687Z,100785.49
2022-09-06T23:10:47.114Z,100790.66
2022-09-06T23:13:53.680Z,100788.98
2022-09-06T23:17:00.040Z,100791.03
2022-09-06T23:19:58.008Z,100787.11
2022-09-06T23:23:07.508Z,100785.59
2022-09-06T23:26:20.020Z,100782.00
2022-09-06T23:29:25.272Z,100779.27
2022-09-06T23:32:32.755Z,100778.23
2022-09-06T23:35:38.995Z,100778.90
2022-09-06T23:38:45.354Z,100771.70
2022-09-06T23:41:50.867Z,100769.83
2022-09-06T23:44:59.115Z,100768.76
2022-09-06T23:48:04.708Z,100777.52
2022-09-06T23:51:10.357Z,100772.73
2022-09-06T23:54:15.733Z,100774.62
2022-09-06T23:57:21.459Z,100772.36
